Terminal Aerodrome Forecast
Issued by NWS

Home | Current Version | Previous Version | Text Only | Print | Product List | Glossary On
Versions: 1 2 3 4 5 6 7 8 9 10 11 12 13 14
000
FTUS42 KTAE 012300
TAFVLD
TAF
KVLD 012337Z 0200/0224 VRB03KT 5SM -RA SCT035 BKN060
      TEMPO 0200/0202 2SM RA BKN035 OVC060
     FM020200 00000KT P6SM SCT060 BKN250
     FM020900 00000KT 4SM BR OVC004
     FM021500 VRB05KT P6SM SCT015 BKN250
     FM021800 07006KT P6SM VCTS BKN050CB=

USA.gov is the U.S. government's official web portal to all federal, state and local government web resources and services.